Latest Weather Observations for Yarram Airport

IDV60801

Issued at 12:05 pm EST Wednesday 3 September 2014 (issued every 30 minutes, with the page automatically refreshed every 10 minutes)

About weather observations | Map of weather stations | Latest weather observations for VIC | Other Formats
Station Details ID: 085151 Name: YARRAM AIRPORT Lat: -38.56 Lon: 146.75 Height: 17.9 m
Data from the previous 72 hours. | See also: Recent months at Yarram Airport
Date/Time
EST
Temp
°C
App
Temp
°C
Dew
Point
Rel
Hum
%
Delta-T
°C
Wind Press
QNH
hPa
Press
MSL
hPa
Rain
since 9 am
mm
Dir
 
Spd
km/h
Gust
km/h
Spd
kts
Gust
kts
03/12:00pm 13.3 8.6 5.0 57 3.8 SW 19 24 10 13 1020.7 1020.8 0.0
03/11:30am 12.7 7.7 4.7 58 3.7 W 20 26 11 14 1021.1 1021.2 0.0
03/11:00am 12.3 7.8 5.9 65 3.0 WSW 19 26 10 14 1021.5 1021.6 0.0
03/10:30am 11.8 7.3 6.1 68 2.7 WSW 19 26 10 14 1022.0 1022.1 0.0
03/10:00am 11.4 6.9 6.1 70 2.5 SW 19 24 10 13 1022.2 1022.3 0.0
03/09:30am 11.8 7.8 8.3 79 1.7 SW 19 24 10 13 1022.3 1022.4 0.0
03/09:00am 10.7 7.4 7.9 83 1.3 W 15 20 8 11 1022.4 1022.5 2.0
03/08:30am 9.8 6.7 7.2 84 1.2 W 13 15 7 8 1022.3 1022.4 2.0
03/08:00am 8.4 5.1 6.2 86 1.0 W 13 17 7 9 1022.0 1022.1 2.0
03/07:30am 7.0 3.4 5.0 87 0.9 W 13 17 7 9 1022.0 1022.1 2.0
03/07:00am 5.6 1.5 4.1 90 0.6 WNW 15 19 8 10 1021.7 1021.8 2.0
03/06:30am 5.2 1.0 3.7 90 0.6 W 15 19 8 10 1021.5 1021.6 2.0
03/06:00am 4.7 0.8 3.4 91 0.5 W 13 15 7 8 1021.5 1021.6 2.0
03/05:30am 5.4 1.2 3.6 88 0.8 W 15 17 8 9 1021.2 1021.3 2.0
03/05:00am 5.8 1.3 4.3 90 0.6 W 17 20 9 11 1021.1 1021.2 2.0
03/04:30am 4.8 1.0 3.8 93 0.4 W 13 15 7 8 1020.8 1020.9 2.0
03/04:00am 4.7 0.9 3.7 93 0.4 W 13 17 7 9 1020.7 1020.8 2.0
03/03:30am 5.5 1.8 4.6 94 0.4 W 13 15 7 8 1020.6 1020.7 2.0
03/03:00am 6.3 2.3 5.1 92 0.5 W 15 19 8 10 1020.6 1020.7 2.0
03/02:30am 6.2 2.3 5.5 95 0.3 W 15 20 8 11 1020.6 1020.7 2.0
03/02:00am 6.6 2.8 5.6 93 0.4 W 15 17 8 9 1020.8 1020.9 2.0
03/01:30am 7.4 3.7 6.2 92 0.5 W 15 20 8 11 1020.9 1021.0 2.0
03/01:00am 6.7 2.9 5.8 94 0.4 W 15 19 8 10 1020.9 1021.0 2.0
03/12:30am 6.2 2.3 5.2 93 0.4 WNW 15 17 8 9 1020.9 1021.0 2.0
03/12:00am 6.0 2.0 5.0 93 0.4 WNW 15 17 8 9 1021.1 1021.2 2.0
 
Date/Time
EST
Temp
°C
App
Temp
°C
Dew
Point
Rel
Hum
%
Delta-T
°C
Wind Press
QNH
hPa
Press
MSL
hPa
Rain
since 9 am
mm
Dir
 
Spd
km/h
Gust
km/h
Spd
kts
Gust
kts
02/11:30pm 5.5 1.4 4.2 91 0.6 WNW 15 15 8 8 1021.0 1021.1 2.0
02/11:00pm 5.7 1.6 4.2 90 0.6 WNW 15 17 8 9 1021.0 1021.1 2.0
02/10:30pm 5.9 2.1 4.1 88 0.8 W 13 17 7 9 1021.1 1021.2 2.0
02/10:00pm 6.2 2.1 4.2 87 0.9 W 15 19 8 10 1021.1 1021.2 2.0
02/09:30pm 5.6 1.4 3.9 89 0.7 WNW 15 17 8 9 1021.1 1021.2 2.0
02/09:00pm 5.6 1.8 4.1 90 0.6 WNW 13 15 7 8 1021.1 1021.2 2.0
02/08:30pm 6.4 2.5 5.2 92 0.5 W 15 19 8 10 1021.0 1021.1 2.0
02/08:00pm 6.1 2.4 4.6 90 0.6 W 13 17 7 9 1020.9 1021.0 2.0
02/07:30pm 6.5 2.8 4.7 88 0.8 WSW 13 19 7 10 1020.7 1020.8 2.0
02/07:00pm 5.9 2.4 3.6 85 1.0 WSW 11 13 6 7 1020.5 1020.6 2.0
02/06:30pm 7.2 3.2 4.9 85 1.0 WSW 15 17 8 9 1020.3 1020.4 2.0
02/06:00pm 8.0 3.9 4.4 78 1.6 SSW 15 20 8 11 1020.0 1020.1 2.0
02/05:30pm 9.5 4.9 5.5 76 1.8 SSW 19 24 10 13 1019.7 1019.8 2.0
02/05:00pm 10.0 4.9 5.8 75 1.9 S 22 30 12 16 1019.4 1019.5 2.0
02/04:30pm 11.4 5.3 6.7 73 2.2 S 28 35 15 19 1018.9 1019.0 2.0
02/04:00pm 12.0 5.8 6.3 68 2.7 S 28 35 15 19 1018.7 1018.8 2.0
02/03:30pm 12.5 6.8 6.5 67 2.9 S 26 35 14 19 1018.3 1018.3 2.0
02/03:00pm 12.6 6.7 7.3 70 2.6 S 28 35 15 19 1018.1 1018.1 2.0
02/02:30pm 12.7 6.7 8.6 76 2.0 S 30 41 16 22 1017.8 1017.8 2.0
02/02:00pm 13.0 7.3 8.3 73 2.3 S 28 37 15 20 1017.4 1017.4 2.0
02/01:30pm 11.7 6.3 7.8 77 1.9 SSW 26 35 14 19 1017.3 1017.3 2.0
02/01:00pm 12.4 9.2 8.3 76 2.0 SSW 15 20 8 11 1017.0 1017.0 2.0
02/12:30pm 11.2 7.8 9.3 88 1.0 SSE 17 20 9 11 1017.3 1017.3 2.0
02/12:00pm 11.6 7.8 9.7 88 1.0 SSW 20 26 11 14 1017.2 1017.2 2.0
02/11:30am 10.0 5.3 7.9 87 1.0 S 22 33 12 18 1017.0 1017.0 1.8
02/11:00am 8.8 4.4 7.3 90 0.7 S 20 37 11 20 1016.9 1016.9 1.4
02/10:48am 10.2 4.1 6.4 77 1.8 S 28 46 15 25 1016.9 1016.9 0.0
02/10:30am 11.8 6.5 8.3 79 1.7 S 26 32 14 17 1016.6 1016.6 0.0
02/10:00am 11.7 7.2 8.4 80 1.6 S 22 33 12 18 1016.4 1016.4 0.0
02/09:30am 10.3 4.5 7.9 85 1.2 S 28 39 15 21 1015.9 1015.9 0.0
02/09:00am 11.0 7.1 9.4 90 0.8 SW 20 28 11 15 1015.6 1015.6 2.8
02/08:30am 11.8 9.4 10.0 89 0.9 WSW 13 17 7 9 1015.2 1015.2 2.6
02/08:00am 9.0 6.0 7.8 92 0.6 WSW 13 17 7 9 1014.9 1014.9 2.6
02/07:30am 8.7 5.7 7.6 93 0.5 WSW 13 17 7 9 1014.6 1014.6 2.6
02/07:00am 7.8 4.9 6.7 93 0.5 WSW 11 13 6 7 1013.9 1013.9 2.6
02/06:30am 8.4 4.8 6.9 90 0.7 WSW 15 20 8 11 1013.6 1013.6 2.6
02/06:00am 8.7 4.8 7.2 90 0.7 WSW 17 22 9 12 1013.1 1013.1 2.6
02/05:30am 8.3 4.4 7.1 92 0.6 W 17 20 9 11 1012.7 1012.7 2.6
02/05:00am 9.0 4.6 7.5 90 0.7 W 20 24 11 13 1012.1 1012.1 2.6
02/04:30am 9.0 4.6 7.3 89 0.8 W 20 24 11 13 1011.8 1011.8 2.6
02/04:00am 9.3 5.1 7.6 89 0.8 W 19 24 10 13 1011.7 1011.7 2.6
02/03:30am 9.7 5.4 8.0 89 0.8 WSW 20 28 11 15 1011.5 1011.5 2.6
02/03:00am 9.7 5.5 8.1 90 0.8 W 20 26 11 14 1011.4 1011.4 2.6
02/02:30am 9.5 5.2 7.9 90 0.8 W 20 24 11 13 1011.3 1011.3 2.6
02/02:00am 9.5 5.8 8.1 91 0.7 W 17 22 9 12 1011.0 1011.0 2.6
02/01:30am 9.8 6.6 8.6 92 0.6 W 15 20 8 11 1011.1 1011.1 2.6
02/01:00am 10.0 6.5 8.6 91 0.7 W 17 20 9 11 1011.0 1011.0 2.6
02/12:30am 10.4 6.5 8.8 90 0.8 W 19 26 10 14 1010.6 1010.6 2.6
02/12:00am 10.3 6.4 8.7 90 0.8 W 19 22 10 12 1010.6 1010.6 2.6
 
Date/Time
EST
Temp
°C
App
Temp
°C
Dew
Point
Rel
Hum
%
Delta-T
°C
Wind Press
QNH
hPa
Press
MSL
hPa
Rain
since 9 am
mm
Dir
 
Spd
km/h
Gust
km/h
Spd
kts
Gust
kts
01/11:30pm 10.3 6.8 8.7 90 0.8 W 17 24 9 13 1010.4 1010.4 2.6
01/11:00pm 10.4 7.0 9.2 92 0.6 W 17 22 9 12 1010.6 1010.6 2.6
01/10:30pm 10.3 6.5 9.2 93 0.5 W 19 26 10 14 1010.5 1010.5 2.6
01/10:00pm 10.5 7.2 9.7 95 0.4 W 17 20 9 11 1010.4 1010.4 2.6
01/09:30pm 10.6 7.4 10.0 96 0.3 W 17 20 9 11 1010.2 1010.2 2.6
01/09:00pm 10.6 7.9 10.3 98 0.2 WNW 15 20 8 11 1010.1 1010.1 2.6
01/08:30pm 10.3 7.9 10.1 99 0.1 WNW 13 15 7 8 1009.8 1009.8 2.6
01/08:00pm 10.4 7.7 10.2 99 0.1 WNW 15 20 8 11 1009.8 1009.8 2.4
01/07:30pm 10.6 7.8 10.1 97 0.3 WNW 15 20 8 11 1009.8 1009.8 0.8
01/07:00pm 10.8 6.6 9.7 93 0.6 W 22 28 12 15 1009.3 1009.3 0.4
01/06:30pm 10.9 9.0 9.0 88 0.9 WSW 9 11 5 6 1008.9 1008.9 0.4
01/06:00pm 11.3 8.5 8.7 84 1.3 WNW 13 15 7 8 1008.4 1008.4 0.4
01/05:30pm 11.6 8.7 9.5 87 1.1 NNW 15 20 8 11 1007.8 1007.8 0.4
01/05:00pm 12.0 8.9 10.4 90 0.8 NW 17 22 9 12 1007.9 1007.9 0.4
01/04:30pm 12.5 9.5 10.7 89 0.9 WNW 17 20 9 11 1007.9 1007.9 0.4
01/04:00pm 12.8 9.9 10.9 88 1.0 WNW 17 22 9 12 1007.6 1007.6 0.2
01/03:30pm 12.6 9.1 10.8 89 0.9 WNW 20 26 11 14 1007.5 1007.5 0.2
01/03:00pm 13.0 7.3 9.8 81 1.6 WNW 30 41 16 22 1007.2 1007.2 0.0
01/02:30pm 13.7 7.9 9.4 75 2.2 W 30 41 16 22 1007.2 1007.2 0.0
01/02:21pm 14.2 6.9 8.6 69 2.8 W 37 56 20 30 1007.1 1007.1 0.0
01/02:00pm 15.9 10.9 7.9 59 4.0 W 24 41 13 22 1006.6 1006.6 0.0
01/01:30pm 16.2 11.5 7.9 58 4.2 W 22 33 12 18 1006.6 1006.6 0.0
01/01:00pm 16.4 12.1 7.9 57 4.3 W 20 26 11 14 1006.6 1006.6 0.0
01/12:30pm 17.1 13.5 8.3 56 4.5 W 17 24 9 13 1006.7 1006.7 0.0
01/12:00pm 17.2 12.7 8.4 56 4.5 W 22 32 12 17 1007.0 1007.0 0.0
01/11:30am 18.2 15.7 11.0 63 3.9 SW 15 17 8 9 1007.3 1007.3 0.0
01/11:00am 18.1 15.6 8.1 52 5.1 N 11 15 6 8 1007.4 1007.4 0.0
01/10:30am 17.5 13.1 7.3 51 5.1 N 20 24 11 13 1007.6 1007.6 0.0
01/10:00am 17.9 11.8 6.7 48 5.6 N 28 35 15 19 1007.4 1007.4 0.0
01/09:30am 17.5 11.3 6.1 47 5.6 N 28 39 15 21 1007.4 1007.4 0.0
01/09:00am 17.4 10.3 5.7 46 5.7 N 32 39 17 21 1007.6 1007.6 0.2
01/08:30am 17.5 10.3 4.8 43 6.1 N 32 43 17 23 1008.1 1008.1 0.2
01/08:00am 17.6 10.7 4.5 42 6.2 N 30 41 16 22 1008.2 1008.2 0.2
01/07:30am 17.5 10.2 4.5 42 6.2 N 32 43 17 23 1008.1 1008.1 0.2
01/07:00am 16.6 10.7 5.6 48 5.3 N 26 35 14 19 1008.2 1008.2 0.2
01/06:30am 16.3 10.7 5.3 48 5.3 N 24 30 13 16 1008.5 1008.5 0.2
01/06:00am 16.4 11.2 5.4 48 5.3 NNW 22 30 12 16 1008.9 1008.9 0.2
01/05:30am 14.1 12.4 7.6 65 3.2 NNE 6 13 3 7 1008.5 1008.5 0.2
01/05:00am 12.9 9.8 7.1 68 2.8 ENE 13 17 7 9 1008.3 1008.3 0.2
01/04:30am 12.9 9.3 6.9 67 2.9 NE 15 20 8 11 1008.2 1008.2 0.2
01/04:00am 13.2 9.3 7.2 67 2.9 ENE 17 22 9 12 1008.6 1008.6 0.2
01/03:30am 13.8 10.3 7.1 64 3.3 NE 15 20 8 11 1009.1 1009.1 0.2
01/03:00am 13.7 10.6 7.2 65 3.2 NE 13 17 7 9 1009.5 1009.5 0.2
01/02:30am 14.2 10.3 7.3 63 3.4 NNE 17 20 9 11 1009.8 1009.8 0.2
01/02:00am 13.9 10.4 7.2 64 3.3 NNE 15 19 8 10 1010.0 1010.0 0.2
01/01:30am 16.0 11.0 6.4 53 4.7 NNE 22 32 12 17 1009.9 1009.9 0.2
01/01:00am 16.1 10.7 6.5 53 4.7 NNE 24 32 13 17 1009.8 1009.8 0.2
01/12:30am 15.6 10.3 6.9 56 4.3 N 24 28 13 15 1010.4 1010.4 0.2
01/12:00am 15.3 10.9 7.3 59 4.0 N 20 28 11 15 1011.1 1011.1 0.2
 
Date/Time
EST
Temp
°C
App
Temp
°C
Dew
Point
Rel
Hum
%
Delta-T
°C
Wind Press
QNH
hPa
Press
MSL
hPa
Rain
since 9 am
mm
Dir
 
Spd
km/h
Gust
km/h
Spd
kts
Gust
kts
31/11:30pm 15.2 10.5 7.7 61 3.7 N 22 30 12 16 1011.6 1011.6 0.2
31/11:00pm 15.1 10.4 7.9 62 3.6 N 22 28 12 15 1012.1 1012.1 0.2
31/10:30pm 15.4 10.8 8.2 62 3.6 N 22 26 12 14 1012.6 1012.7 0.2
31/10:00pm 14.9 10.8 8.8 67 3.1 N 20 26 11 14 1012.9 1013.0 0.2
31/09:30pm 14.3 10.5 9.1 71 2.6 N 19 20 10 11 1013.3 1013.4 0.2
31/09:00pm 13.1 10.3 8.4 73 2.3 ENE 13 15 7 8 1013.5 1013.6 0.2
31/08:30pm 13.7 11.2 9.7 77 2.1 NE 13 17 7 9 1013.7 1013.8 0.2
31/08:00pm 13.7 11.4 10.5 81 1.7 NE 13 17 7 9 1014.0 1014.1 0.2
31/07:30pm 13.2 11.0 10.7 85 1.3 NE 13 17 7 9 1014.0 1014.1 0.2
31/07:00pm 10.7 8.2 9.8 94 0.5 NNE 13 17 7 9 1014.2 1014.3 0.2
31/06:30pm 11.3 9.6 10.0 92 0.7 NE 9 13 5 7 1014.1 1014.2 0.2
31/06:00pm 12.9 10.6 10.3 84 1.3 ENE 13 15 7 8 1013.8 1013.9 0.2
31/05:30pm 14.1 12.0 11.1 82 1.6 E 13 17 7 9 1013.7 1013.8 0.2
31/05:00pm 16.0 14.5 11.8 76 2.3 E 11 15 6 8 1013.7 1013.8 0.2
31/04:30pm 17.8 15.9 11.8 68 3.3 E 13 20 7 11 1013.8 1013.9 0.2
31/04:00pm 17.8 16.0 12.0 69 3.2 E 13 17 7 9 1013.8 1013.9 0.2
31/03:30pm 19.9 18.1 10.9 56 4.9 E 11 15 6 8 1014.2 1014.3 0.2
31/03:00pm 20.1 18.0 11.3 57 4.8 E 13 17 7 9 1014.3 1014.4 0.2
31/02:30pm 20.2 18.3 11.7 58 4.7 SE 13 17 7 9 1014.7 1014.8 0.2
31/02:00pm 20.4 19.0 13.4 64 4.0 SE 13 19 7 10 1014.9 1015.0 0.2
31/01:30pm 20.4 18.5 11.9 58 4.7 SSE 13 17 7 9 1015.3 1015.4 0.2
31/01:00pm 20.6 19.3 10.1 51 5.7 SE 7 13 4 7 1015.6 1015.7 0.2
31/12:30pm 20.1 19.2 11.3 57 4.8 ESE 7 11 4 6 1016.0 1016.1 0.2

Other Formats:

Comma delimited format used in spreadsheet applications
http://www.bom.gov.au/fwo/IDV60801/IDV60801.95890.axf

JavaScript Object Notation format (JSON) in row-major order
http://www.bom.gov.au/fwo/IDV60801/IDV60801.95890.json